Begin your journey as a pilot today!

About Kelly's Aviation

Meet our Instructors.

Thank you for inquiring about flight instruction and airplane rental at Kelly's Aviation.

Everyone involved with Kelly's Aviation knows how flying can transform your life. That's not just because of what you gain in skills and knowledge but also what it can teach you about yourself. The rewards and experiences gained from flying are endless.

With all that in mind, our goal is to make every flight a rewarding, personalized and positive experience.

Kelly's Hanger

What our clients say about us

Get in touch.

Visit Kelly's Aviation

Kelly's Aviation
Kelly Stites, Owner

KRYN
6330 S. Aviator Lane
Hanger A
HCR Box 289
Tucson, AZ 85735

How's our weather?
KRYN 121547Z 10006KT 10SM CLR 11/M02 A3023

Contact details

E-mail address:
kelly@kellysaviation.com

520.578.0018

Winter Hours

Sunday 8:00 until 17:00
Monday Closed
Tuesday 8:00 until 17:00
Closed every other week
Wednesday 8:00 until 15:00
Thursday 8:00 until 17:00
Friday 8:00 until 15:00
Saturday 8:00 until 17:00